sabremau's sites:

title views votes rating creation
?Not KinetiCrafts 4,044 29 (2.90)  2005-08-14
?Overlord Fluffycoat is Watching 10,221 239 (3.88)  2005-08-18
?Scrooge loses his favorite ice cream 19,567 390 (4.00)  2005-08-30
?Zoidberg's a monster? 27,362 517 (3.64)  2005-08-30
?Emperor Fred has an announcement! 8,321 92 (3.57)  2005-09-02
?Captain Sean-Luc Penn of the U.S.S. Plastic Cup 2,381 31 (3.10)  2005-09-05
?Kuru kuru kuru kuru! 1,544 37 (3.46)  2005-09-07
?President Carlos serenades reporters 1,630 28 (3.43)  2005-09-11
?The Vick Flip 5,184 28 (3.39)  2005-09-13
?867-5309 2,233 44 (3.77)  2005-09-13
?Macho Ginyu Pose 2,653 34 (3.44)  2005-09-13
?Ford into Mordor? 8,934 123 (4.12)  2005-09-13
?Are you a bad enough Skuld to rescue them? 1,802 31 (3.03)  2005-09-16
?Maid Marian Works It 5,560 38 (3.42)  2005-09-18
?Something's wrong with the CD!! (refresh) 20,291 448 (4.25)  2005-09-24
?Don't praise the cat 3,496 56 (1.71)  2005-09-28
?Tifa makes bee noises 15,596 92 (3.63)  2005-09-29
?That Crazy Hand Jive 3,959 100 (3.78)  2005-09-29
?Kitty Birthday! 13,694 340 (3.90)  2005-09-30
?Tycho requires frozen treats 1,529 26 (3.58)  2005-10-03
?Zangief Techno Cossack 8,225 35 (3.91)  2005-10-06
?Jim Carrey changes facial expressions 22,226 165 (3.85)  2005-10-31
?The Fearsome Blood Elves 246,084 1,345 (3.04)  2005-11-05
?Run Lupin Run 3,018 53 (3.94)  2005-11-08
?Cats Bred for a Single Purpose 1,576 22 (3.68)  2005-11-08
?Colin the Friendly Mugger 7,100 73 (3.79)  2005-11-09
?As Full as a Baked Potato 2,347 28 (3.64)  2005-11-16
?Buttery Flavoured Colin 2,542 39 (3.69)  2005-11-19
?Star Trek: Gargoyles 38,645 556 (4.03)  2005-11-27
?Phoenix Wright: Go West! 18,646 225 (3.96)  2005-12-04
?Sailor Moon vs. Sakaki 178,122 1,463 (4.03)  2005-12-06
?Admiral Ackbar's New Battle Cry 4,066 44 (3.66)  2005-12-08
?Colin Mochrie's Tribal Dance 117,809 1,310 (4.19)  2005-12-15
?Star Control 2: Picard vs. Batman 22,518 237 (4.05)  2005-12-26
?Lupin's Elevator 2,639 47 (4.04)  2005-12-31
?Colonel Potter Song 6,965 108 (4.01)  2006-01-03
?Colin Mochrie's Bebop 10,347 116 (3.95)  2006-01-09
?Face/Off: Kaorin & Sakaki 5,219 50 (3.68)  2006-01-10
?Jung Hwa Ban Jeom 2,179 22 (3.45)  2006-01-15
?Jessica Fletcher Stares Into Your Window 2,475 61 (3.70)  2006-01-19
?Undead Schoolgirls Dance With Finnish Thing 96,077 1,568 (3.70)  2006-01-21
?Moment of a Galaxy 1,883 31 (3.71)  2006-01-23
?Detergent, detergent...THE CAT! 1,495 20 (3.60)  2006-01-25
?Preoccupied with 1985 28,299 383 (3.66)  2006-01-26
?Arcanite Reaper, HO! 15,764 27 (4.11)  2006-02-14
?Colin Mochrie's Raptor Dance 37,484 626 (4.18)  2006-02-15
?Colin Mochrie Walks the Dinosaur 12,287 135 (4.00)  2006-02-15
?This is the Answer 5,618 81 (3.26)  2006-02-16
?Tycho and Gabe Snap Through Time 1,900 34 (3.76)  2006-03-01
?Colin Mochrie's Breakdance 10,985 488 (4.03)  2006-03-02
?Colin Mochrie's Finnish Moskau 3,643 40 (3.88)  2006-03-04
?Navy Guy likes Baron's Mount 3,849 23 (3.74)  2006-03-11
?Rhombic Dodecahedron 11,386 697 (3.95)  2006-03-15
?PTKFGS: Sakaki vs. Sailor Moon 30,384 508 (3.74)  2006-03-16
?(nsfw) Ireoda TA-LA-LA 10,910 130 (3.79)  2006-03-23
?Roji Panty Complex 11,494 290 (3.98)  2006-03-30
?Nuna Nuna Ui 30,455 425 (4.06)  2006-03-31
?Yuki's Baseball Practice 5,532 71 (4.20)  2006-04-24
?Mikuru Not Guaranteed 5,953 78 (4.18)  2006-04-27
?Leavened with Delicious Avocado 2,809 28 (3.93)  2006-04-27
?Colbert is... (upgraded) Star Wars Kid! 29,041 447 (4.20)  2006-08-13
?Mace Windu evaluates Colbert's skills 72,394 1,555 (4.55)  2006-08-14
?Gravity Cat vs. Arilou 2,111 23 (3.43)  2006-08-22
?Hooray for the Electro-Barrier! 10,275 260 (3.82)  2006-10-23
?Jackie Chan in Drunken Master II 3,496 18 (4.17)  2007-07-19
?A Little Ditty Going Through Ryu's Head 3,048 17 (3.76)  2009-01-12
?Beartato Flying 1,202 10 (3.10)  2009-09-29
?Wobbominations 2,075 5 (3.80)  2010-01-19
?You Resemble Babar 963 8 (3.50)  2010-04-22
?Chatstick Fishbumps 3,357 11 (3.45)  2010-04-30
?Ghost Rider Wants To Take Deadpool For A Ride 2,875 2 (4.00)  2010-12-21